createdAt,value
2022-10-22T00:00:35.411Z,99633.06
2022-10-22T00:03:03.196Z,99631.06
2022-10-22T00:05:30.706Z,99621.63
2022-10-22T00:07:58.163Z,99633.84
2022-10-22T00:10:25.824Z,99625.81
2022-10-22T00:12:53.377Z,99631.16
2022-10-22T00:15:20.813Z,99629.69
2022-10-22T00:17:49.673Z,99622.94
2022-10-22T00:20:17.103Z,99628.50
2022-10-22T00:22:44.615Z,99631.88
2022-10-22T00:25:12.341Z,99622.78
2022-10-22T00:27:39.935Z,99625.75
2022-10-22T00:30:08.965Z,99617.06
2022-10-22T00:32:36.719Z,99625.00
2022-10-22T00:35:04.776Z,99620.19
2022-10-22T00:37:32.200Z,99620.91
2022-10-22T00:39:59.889Z,99619.31
2022-10-22T00:42:30.259Z,99615.94
2022-10-22T00:45:09.823Z,99608.94
2022-10-22T00:47:38.014Z,99602.28
2022-10-22T00:50:09.237Z,99608.44
2022-10-22T00:52:37.001Z,99606.88
2022-10-22T00:55:05.422Z,99602.50
2022-10-22T00:57:34.491Z,99603.03
2022-10-22T01:00:02.233Z,99605.44
2022-10-22T01:02:29.658Z,99599.50
2022-10-22T01:04:57.063Z,99609.16
2022-10-22T01:07:26.150Z,99615.69
2022-10-22T01:10:09.415Z,99609.50
2022-10-22T01:12:45.105Z,99615.84
2022-10-22T01:15:57.647Z,99607.06
2022-10-22T01:18:49.391Z,99607.59
2022-10-22T01:21:42.449Z,99610.22
2022-10-22T01:24:21.599Z,99612.75
2022-10-22T01:27:07.745Z,99605.84
2022-10-22T01:29:47.014Z,99607.84
2022-10-22T01:32:18.205Z,99606.78
2022-10-22T01:34:50.210Z,99605.81
2022-10-22T01:37:18.743Z,99611.19
2022-10-22T01:39:47.252Z,99608.78
2022-10-22T01:42:14.871Z,99604.66
2022-10-22T01:44:42.306Z,99606.78
2022-10-22T01:47:31.619Z,99608.53
2022-10-22T01:50:02.909Z,99606.38
2022-10-22T01:52:42.046Z,99601.59
2022-10-22T01:55:28.889Z,99600.19
2022-10-22T01:58:30.145Z,99596.00
2022-10-22T02:01:03.744Z,99596.09
2022-10-22T02:03:40.472Z,99602.31
2022-10-22T02:06:14.217Z,99594.41
2022-10-22T02:08:42.371Z,99589.31
2022-10-22T02:11:12.314Z,99579.94
2022-10-22T02:13:44.368Z,99574.78
2022-10-22T02:16:15.707Z,99582.25
2022-10-22T02:18:45.535Z,99571.06
2022-10-22T02:21:13.490Z,99585.19
2022-10-22T02:23:41.035Z,99592.97
2022-10-22T02:26:27.187Z,99584.34
2022-10-22T02:29:12.168Z,99575.00
2022-10-22T02:31:41.073Z,99582.06
2022-10-22T02:34:11.761Z,99578.47
2022-10-22T02:36:40.664Z,99577.06
2022-10-22T02:39:08.492Z,99585.44
2022-10-22T02:41:37.789Z,99589.94
2022-10-22T02:44:09.105Z,99597.75
2022-10-22T02:46:40.385Z,99598.63
2022-10-22T02:49:07.783Z,99609.75
2022-10-22T02:51:35.170Z,99617.12
2022-10-22T02:54:02.853Z,99611.75
2022-10-22T02:56:30.316Z,99606.66
2022-10-22T02:58:58.099Z,99607.63
2022-10-22T03:01:25.869Z,99597.81
2022-10-22T03:03:53.324Z,99606.19
2022-10-22T03:06:21.293Z,99605.06
2022-10-22T03:08:49.052Z,99604.25
2022-10-22T03:11:16.482Z,99608.38
2022-10-22T03:13:43.918Z,99597.16
2022-10-22T03:16:11.613Z,99586.09
2022-10-22T03:18:39.000Z,99584.00
2022-10-22T03:21:11.469Z,99585.50
2022-10-22T03:23:40.979Z,99578.88
2022-10-22T03:26:09.091Z,99576.19
2022-10-22T03:28:37.268Z,99569.53
2022-10-22T03:31:05.001Z,99563.09
2022-10-22T03:33:32.466Z,99581.75
2022-10-22T03:36:00.734Z,99571.72
2022-10-22T03:38:29.006Z,99565.06
2022-10-22T03:40:56.443Z,99576.28
2022-10-22T03:43:23.818Z,99579.09
2022-10-22T03:45:51.458Z,99567.22
2022-10-22T03:48:19.969Z,99566.34
2022-10-22T03:50:47.367Z,99563.78
2022-10-22T03:53:15.037Z,99554.72
2022-10-22T03:55:42.446Z,99546.25
2022-10-22T03:58:09.882Z,99546.53
2022-10-22T04:00:37.759Z,99558.69
2022-10-22T04:03:05.452Z,99561.25
2022-10-22T04:05:34.100Z,99570.19
2022-10-22T04:08:01.708Z,99581.22
2022-10-22T04:10:29.556Z,99577.41
2022-10-22T04:12:56.979Z,99579.09
2022-10-22T04:15:26.891Z,99574.00
2022-10-22T04:17:54.860Z,99575.84
2022-10-22T04:20:22.266Z,99573.16
2022-10-22T04:22:49.744Z,99574.44
2022-10-22T04:25:17.430Z,99572.16
2022-10-22T04:27:44.798Z,99573.56
2022-10-22T04:30:13.224Z,99574.00
2022-10-22T04:32:40.987Z,99567.50
2022-10-22T04:35:08.609Z,99564.94
2022-10-22T04:37:36.224Z,99564.81
2022-10-22T04:40:04.557Z,99559.13
2022-10-22T04:42:31.979Z,99570.88
2022-10-22T04:44:59.386Z,99564.38
2022-10-22T04:47:27.242Z,99570.72
2022-10-22T04:49:54.644Z,99574.28
2022-10-22T04:52:22.042Z,99560.94
2022-10-22T04:54:49.688Z,99551.75
2022-10-22T04:57:17.094Z,99561.09
2022-10-22T04:59:44.486Z,99564.22
2022-10-22T05:02:12.210Z,99571.12
2022-10-22T05:04:39.697Z,99570.25
2022-10-22T05:07:07.064Z,99577.22
2022-10-22T05:09:34.794Z,99569.16
2022-10-22T05:12:03.258Z,99558.56
2022-10-22T05:14:30.694Z,99558.97
2022-10-22T05:16:58.497Z,99564.50
2022-10-22T05:19:27.788Z,99562.09
2022-10-22T05:21:58.005Z,99566.47
2022-10-22T05:24:26.689Z,99567.59
2022-10-22T05:26:55.823Z,99567.88
2022-10-22T05:29:23.550Z,99570.03
2022-10-22T05:31:51.282Z,99581.50
2022-10-22T05:34:19.039Z,99559.97
2022-10-22T05:36:46.565Z,99569.63
2022-10-22T05:39:14.257Z,99563.78
2022-10-22T05:41:41.781Z,99566.66
2022-10-22T05:44:11.613Z,99560.97
2022-10-22T05:46:39.633Z,99551.47
2022-10-22T05:49:07.993Z,99566.78
2022-10-22T05:51:36.610Z,99569.34
2022-10-22T05:54:06.567Z,99582.06
2022-10-22T05:56:34.600Z,99580.94
2022-10-22T06:01:33.126Z,99575.56
2022-10-22T06:04:02.168Z,99582.50
2022-10-22T06:06:32.985Z,99591.72
2022-10-22T06:09:04.223Z,99609.09
2022-10-22T06:11:34.313Z,99601.19
2022-10-22T06:14:04.068Z,99608.81
2022-10-22T06:16:32.180Z,99609.53
2022-10-22T06:19:02.112Z,99608.72
2022-10-22T06:21:30.483Z,99604.16
2022-10-22T06:23:58.923Z,99607.03
2022-10-22T06:26:26.617Z,99612.97
2022-10-22T06:28:56.057Z,99604.16
2022-10-22T06:31:24.754Z,99597.50
2022-10-22T06:33:52.214Z,99595.97
2022-10-22T06:36:21.887Z,99594.12
2022-10-22T06:38:52.537Z,99603.50
2022-10-22T06:41:22.167Z,99616.50
2022-10-22T06:43:51.997Z,99619.63
2022-10-22T06:46:21.281Z,99626.16
2022-10-22T06:48:53.502Z,99621.88
2022-10-22T06:51:21.298Z,99618.59
2022-10-22T06:53:49.157Z,99618.72
2022-10-22T06:56:20.030Z,99624.09
2022-10-22T06:58:48.748Z,99616.75
2022-10-22T07:01:18.251Z,99608.38
2022-10-22T07:03:46.140Z,99626.38
2022-10-22T07:06:15.054Z,99627.56
2022-10-22T07:08:42.803Z,99623.44
2022-10-22T07:11:23.423Z,99609.53
2022-10-22T07:13:54.439Z,99605.28
2022-10-22T07:16:22.339Z,99607.09
2022-10-22T07:18:50.264Z,99608.78
2022-10-22T07:21:19.284Z,99603.13
2022-10-22T07:23:46.856Z,99601.28
2022-10-22T07:26:16.180Z,99597.81
2022-10-22T07:28:43.989Z,99607.28
2022-10-22T07:31:13.252Z,99606.28
2022-10-22T07:33:40.680Z,99608.91
2022-10-22T07:36:11.187Z,99613.94
2022-10-22T07:38:38.611Z,99618.38
2022-10-22T07:41:06.172Z,99609.41
2022-10-22T07:43:33.941Z,99602.28
2022-10-22T07:46:02.842Z,99607.28
2022-10-22T07:48:30.465Z,99594.94
2022-10-22T07:50:58.399Z,99605.25
2022-10-22T07:53:25.842Z,99605.56
2022-10-22T07:55:53.536Z,99614.16
2022-10-22T07:58:22.234Z,99616.97
2022-10-22T08:00:50.751Z,99611.56
2022-10-22T08:03:18.706Z,99607.28
2022-10-22T08:05:46.182Z,99605.09
2022-10-22T08:08:14.770Z,99614.47
2022-10-22T08:10:43.072Z,99610.19
2022-10-22T08:13:10.658Z,99616.31
2022-10-22T08:15:38.580Z,99608.03
2022-10-22T08:18:06.345Z,99609.97
2022-10-22T08:20:33.844Z,99605.28
2022-10-22T08:23:01.385Z,99614.19
2022-10-22T08:25:29.067Z,99616.28
2022-10-22T08:27:56.524Z,99608.56
2022-10-22T08:30:27.782Z,99613.41
2022-10-22T08:32:56.026Z,99610.59
2022-10-22T08:35:23.534Z,99617.44
2022-10-22T08:37:51.010Z,99614.41
2022-10-22T08:40:34.673Z,99620.78
2022-10-22T08:43:13.577Z,99608.22
2022-10-22T08:45:46.421Z,99607.19
2022-10-22T08:48:14.495Z,99622.41
2022-10-22T08:50:46.909Z,99630.19
2022-10-22T08:53:19.408Z,99621.88
2022-10-22T08:55:48.132Z,99622.78
2022-10-22T08:58:50.455Z,99614.25
2022-10-22T09:01:27.535Z,99597.34
2022-10-22T09:04:07.429Z,99624.78
2022-10-22T09:06:37.283Z,99624.97
2022-10-22T09:09:11.966Z,99628.97
2022-10-22T09:11:42.434Z,99622.41
2022-10-22T09:17:01.700Z,99616.03
2022-10-22T09:19:55.482Z,99612.00
2022-10-22T09:22:45.277Z,99609.25
2022-10-22T09:25:32.020Z,99614.97
2022-10-22T09:27:59.805Z,99614.09
2022-10-22T09:30:29.940Z,99623.91
2022-10-22T09:33:13.190Z,99628.37
2022-10-22T09:35:51.198Z,99636.25
2022-10-22T09:38:21.442Z,99640.91
2022-10-22T09:40:52.088Z,99635.91
2022-10-22T09:43:19.998Z,99635.06
2022-10-22T09:45:48.518Z,99642.00
2022-10-22T09:48:28.421Z,99638.97
2022-10-22T09:51:19.589Z,99621.00
2022-10-22T09:53:58.345Z,99619.56
2022-10-22T09:56:55.645Z,99618.38
2022-10-22T09:59:37.016Z,99619.41
2022-10-22T10:02:26.637Z,99624.25
2022-10-22T10:05:03.767Z,99620.87
2022-10-22T10:07:32.413Z,99617.78
2022-10-22T10:09:59.950Z,99620.06
2022-10-22T10:15:21.060Z,99604.47
2022-10-22T10:18:04.117Z,99605.66
2022-10-22T10:20:46.812Z,99609.69
2022-10-22T10:23:27.024Z,99617.31
2022-10-22T10:26:19.387Z,99620.25
2022-10-22T10:28:50.125Z,99607.31
2022-10-22T10:31:50.027Z,99613.44
2022-10-22T10:34:29.785Z,99603.78
2022-10-22T10:37:16.303Z,99599.72
2022-10-22T10:40:14.664Z,99607.72
2022-10-22T10:43:04.290Z,99614.19
2022-10-22T10:45:39.665Z,99607.84
2022-10-22T10:48:15.250Z,99625.84
2022-10-22T10:50:56.118Z,99625.66
2022-10-22T10:53:41.060Z,99633.63
2022-10-22T10:56:47.807Z,99631.56
2022-10-22T10:59:33.976Z,99637.41
2022-10-22T11:02:25.967Z,99637.38
2022-10-22T11:05:14.565Z,99632.12
2022-10-22T11:07:52.124Z,99633.50
2022-10-22T11:10:28.324Z,99630.94
2022-10-22T11:13:10.931Z,99626.19
2022-10-22T11:15:39.955Z,99618.06
2022-10-22T11:18:40.376Z,99610.25
2022-10-22T11:21:13.472Z,99613.69
2022-10-22T11:23:56.413Z,99613.16
2022-10-22T11:26:48.562Z,99606.31
2022-10-22T11:29:27.223Z,99604.75
2022-10-22T11:31:57.487Z,99603.31
2022-10-22T11:34:34.259Z,99598.22
2022-10-22T11:37:04.150Z,99587.09
2022-10-22T11:39:33.758Z,99594.88
2022-10-22T11:42:07.279Z,99587.09
2022-10-22T11:44:46.717Z,99588.13
2022-10-22T11:47:21.132Z,99586.41
2022-10-22T11:50:16.037Z,99575.06
2022-10-22T11:53:04.899Z,99575.78
2022-10-22T11:55:48.445Z,99583.38
2022-10-22T11:58:44.009Z,99582.19
2022-10-22T12:01:11.595Z,99568.66
2022-10-22T12:03:50.734Z,99573.87
2022-10-22T12:06:23.156Z,99584.22
2022-10-22T12:08:54.160Z,99571.00
2022-10-22T12:11:47.816Z,99565.59
2022-10-22T12:14:28.094Z,99567.25
2022-10-22T12:17:07.694Z,99567.09
2022-10-22T12:19:43.612Z,99574.87
2022-10-22T12:22:19.120Z,99575.75
2022-10-22T12:24:54.766Z,99564.84
2022-10-22T12:27:26.077Z,99563.34
2022-10-22T12:29:56.287Z,99568.22
2022-10-22T12:32:29.335Z,99558.34
2022-10-22T12:34:56.992Z,99563.91
2022-10-22T12:37:24.371Z,99560.91
2022-10-22T12:39:51.867Z,99554.28
2022-10-22T12:42:19.589Z,99561.88
2022-10-22T12:44:47.015Z,99570.84
2022-10-22T12:47:17.011Z,99570.00
2022-10-22T12:49:47.809Z,99572.06
2022-10-22T12:52:18.749Z,99571.22
2022-10-22T12:54:48.313Z,99575.66
2022-10-22T12:57:17.725Z,99579.69
2022-10-22T12:59:49.964Z,99586.16
2022-10-22T13:02:17.817Z,99582.56
2022-10-22T13:05:14.612Z,99588.31
2022-10-22T13:07:47.063Z,99571.00
2022-10-22T13:10:19.324Z,99575.44
2022-10-22T13:12:50.755Z,99576.09
2022-10-22T13:15:22.589Z,99582.22
2022-10-22T13:17:50.413Z,99570.88
2022-10-22T13:20:21.626Z,99576.50
2022-10-22T13:23:00.548Z,99571.34
2022-10-22T13:25:33.711Z,99574.25
2022-10-22T13:28:04.052Z,99571.91
2022-10-22T13:30:35.081Z,99571.56
2022-10-22T13:33:36.079Z,99566.31
2022-10-22T13:36:04.215Z,99571.22
2022-10-22T13:38:31.728Z,99577.03
2022-10-22T13:40:59.503Z,99574.47
2022-10-22T13:43:27.547Z,99570.47
2022-10-22T13:45:58.470Z,99563.31
2022-10-22T13:48:26.849Z,99570.34
2022-10-22T13:50:54.670Z,99577.78
2022-10-22T13:53:24.446Z,99580.84
2022-10-22T13:55:52.197Z,99580.31
2022-10-22T13:58:23.890Z,99582.72
2022-10-22T14:00:57.086Z,99584.56
2022-10-22T14:03:33.356Z,99588.59
2022-10-22T14:06:01.472Z,99575.69
2022-10-22T14:08:29.633Z,99575.34
2022-10-22T14:10:57.116Z,99582.47
2022-10-22T14:13:24.545Z,99584.38
2022-10-22T14:15:52.941Z,99589.97
2022-10-22T14:18:27.316Z,99585.41
2022-10-22T14:21:00.102Z,99594.00
2022-10-22T14:23:30.009Z,99581.44
2022-10-22T14:25:59.316Z,99583.72
2022-10-22T14:28:27.138Z,99561.16
2022-10-22T14:30:55.006Z,99576.91
2022-10-22T14:33:31.914Z,99581.84
2022-10-22T14:36:00.679Z,99591.16
2022-10-22T14:38:29.107Z,99593.94
2022-10-22T14:40:57.807Z,99592.91
2022-10-22T14:43:27.757Z,99586.75
2022-10-22T14:45:55.534Z,99597.03
2022-10-22T14:48:23.974Z,99597.06
2022-10-22T14:50:51.692Z,99585.03
2022-10-22T14:53:19.484Z,99581.16
2022-10-22T14:55:48.991Z,99583.00
2022-10-22T14:58:16.479Z,99586.91
2022-10-22T15:00:44.390Z,99589.09
2022-10-22T15:03:11.983Z,99601.47
2022-10-22T15:05:45.796Z,99601.50
2022-10-22T15:08:14.547Z,99601.91
2022-10-22T15:10:42.506Z,99600.41
2022-10-22T15:13:10.059Z,99606.78
2022-10-22T15:15:41.243Z,99602.09
2022-10-22T15:18:08.847Z,99593.66
2022-10-22T15:20:36.342Z,99594.44
2022-10-22T15:23:04.162Z,99600.28
2022-10-22T15:25:31.790Z,99601.34
2022-10-22T15:28:03.415Z,99606.47
2022-10-22T15:30:37.143Z,99618.50
2022-10-22T15:33:04.780Z,99609.06
2022-10-22T15:35:32.367Z,99608.84
2022-10-22T15:38:00.233Z,99603.16
2022-10-22T15:40:27.711Z,99612.69
2022-10-22T15:42:55.268Z,99613.97
2022-10-22T15:45:25.013Z,99621.69
2022-10-22T15:47:52.556Z,99617.22
2022-10-22T15:50:20.010Z,99623.44
2022-10-22T15:52:47.975Z,99629.94
2022-10-22T15:55:15.777Z,99637.97
2022-10-22T15:57:44.046Z,99636.31
2022-10-22T16:00:12.717Z,99652.56
2022-10-22T16:02:40.313Z,99647.28
2022-10-22T16:05:08.447Z,99664.22
2022-10-22T16:07:35.933Z,99656.34
2022-10-22T16:10:04.359Z,99667.63
2022-10-22T16:12:32.024Z,99673.25
2022-10-22T16:14:59.466Z,99681.75
2022-10-22T16:17:26.903Z,99678.31
2022-10-22T16:19:54.704Z,99688.84
2022-10-22T16:22:22.266Z,99689.59
2022-10-22T16:24:49.670Z,99699.25
2022-10-22T16:27:17.573Z,99708.28
2022-10-22T16:29:45.156Z,99721.50
2022-10-22T16:32:13.305Z,99713.97
2022-10-22T16:34:42.232Z,99721.19
2022-10-22T16:37:12.617Z,99735.81
2022-10-22T16:39:40.025Z,99741.63
2022-10-22T16:42:07.742Z,99736.31
2022-10-22T16:44:35.236Z,99739.72
2022-10-22T16:47:02.706Z,99743.22
2022-10-22T16:49:30.576Z,99748.97
2022-10-22T16:51:58.274Z,99745.03
2022-10-22T16:54:26.335Z,99752.31
2022-10-22T16:56:54.110Z,99757.69
2022-10-22T16:59:21.573Z,99758.91
2022-10-22T17:01:49.115Z,99755.34
2022-10-22T17:04:17.533Z,99758.16
2022-10-22T17:06:45.122Z,99752.44
2022-10-22T17:09:13.598Z,99753.53
2022-10-22T17:11:42.688Z,99755.75
2022-10-22T17:14:11.984Z,99748.72
2022-10-22T17:16:39.477Z,99750.47
2022-10-22T17:19:07.308Z,99748.28
2022-10-22T17:21:35.024Z,99744.56
2022-10-22T17:24:02.673Z,99741.37
2022-10-22T17:26:33.241Z,99750.97
2022-10-22T17:29:00.933Z,99756.28
2022-10-22T17:31:32.683Z,99755.22
2022-10-22T17:34:00.614Z,99762.53
2022-10-22T17:36:31.790Z,99759.72
2022-10-22T17:39:05.357Z,99757.72
2022-10-22T17:41:35.381Z,99753.84
2022-10-22T17:44:05.407Z,99763.97
2022-10-22T17:46:33.043Z,99777.66
2022-10-22T17:49:04.013Z,99773.63
2022-10-22T17:51:32.055Z,99781.88
2022-10-22T17:53:59.720Z,99774.72
2022-10-22T17:56:29.981Z,99778.13
2022-10-22T17:58:59.815Z,99772.44
2022-10-22T18:01:31.642Z,99783.94
2022-10-22T18:04:01.812Z,99791.78
2022-10-22T18:06:30.127Z,99793.69
2022-10-22T18:08:57.707Z,99794.09
2022-10-22T18:11:27.192Z,99798.19
2022-10-22T18:13:56.746Z,99803.28
2022-10-22T18:16:25.133Z,99790.47
2022-10-22T18:18:56.889Z,99800.78
2022-10-22T18:21:27.818Z,99789.91
2022-10-22T18:23:57.124Z,99796.09
2022-10-22T18:26:26.875Z,99797.34
2022-10-22T18:28:56.894Z,99806.75
2022-10-22T18:31:25.877Z,99825.53
2022-10-22T18:36:27.669Z,99818.03
2022-10-22T18:38:57.507Z,99825.66
2022-10-22T18:41:26.088Z,99832.69
2022-10-22T18:43:56.079Z,99844.78
2022-10-22T18:46:24.223Z,99843.66
2022-10-22T18:48:58.828Z,99833.69
2022-10-22T18:51:30.183Z,99833.81
2022-10-22T18:54:05.758Z,99833.37
2022-10-22T18:56:47.145Z,99814.00
2022-10-22T18:59:23.050Z,99814.16
2022-10-22T19:01:57.570Z,99836.44
2022-10-22T19:04:31.004Z,99841.06
2022-10-22T19:07:05.579Z,99842.44
2022-10-22T19:09:33.133Z,99834.63
2022-10-22T19:12:01.099Z,99835.91
2022-10-22T19:14:28.720Z,99835.78
2022-10-22T19:16:56.348Z,99839.50
2022-10-22T19:19:24.613Z,99845.81
2022-10-22T19:21:52.211Z,99845.56
2022-10-22T19:24:20.339Z,99838.19
2022-10-22T19:26:48.962Z,99848.69
2022-10-22T19:29:18.151Z,99856.41
2022-10-22T19:31:47.660Z,99853.44
2022-10-22T19:34:15.533Z,99852.72
2022-10-22T19:36:43.137Z,99851.41
2022-10-22T19:39:10.860Z,99863.22
2022-10-22T19:41:38.937Z,99856.81
2022-10-22T19:44:06.517Z,99876.44
2022-10-22T19:46:34.215Z,99869.50
2022-10-22T19:49:02.789Z,99862.25
2022-10-22T19:51:31.344Z,99877.84
2022-10-22T19:54:04.892Z,99880.28
2022-10-22T19:56:33.841Z,99890.50
2022-10-22T19:59:02.733Z,99886.97
2022-10-22T20:01:31.897Z,99895.50
2022-10-22T20:04:01.457Z,99899.19
2022-10-22T20:06:29.728Z,99890.12
2022-10-22T20:08:58.179Z,99899.44
2022-10-22T20:11:28.728Z,99904.03
2022-10-22T20:13:57.262Z,99896.22
2022-10-22T20:16:28.649Z,99899.19
2022-10-22T20:19:01.547Z,99898.62
2022-10-22T20:21:29.227Z,99904.47
2022-10-22T20:23:57.769Z,99905.03
2022-10-22T20:26:28.187Z,99906.44
2022-10-22T20:28:57.646Z,99905.31
2022-10-22T20:31:28.569Z,99911.81
2022-10-22T20:34:01.167Z,99913.53
2022-10-22T20:36:30.478Z,99926.63
2022-10-22T20:39:03.372Z,99922.34
2022-10-22T20:41:33.989Z,99914.97
2022-10-22T20:44:01.642Z,99918.94
2022-10-22T20:46:31.100Z,99914.69
2022-10-22T20:49:10.087Z,99920.66
2022-10-22T20:51:38.118Z,99921.06
2022-10-22T20:54:07.545Z,99919.63
2022-10-22T20:56:36.051Z,99933.56
2022-10-22T20:59:04.714Z,99942.25
2022-10-22T21:01:40.369Z,99936.00
2022-10-22T21:04:08.868Z,99940.13
2022-10-22T21:06:38.291Z,99937.81
2022-10-22T21:09:11.069Z,99936.84
2022-10-22T21:11:40.263Z,99937.81
2022-10-22T21:14:09.267Z,99944.78
2022-10-22T21:16:40.920Z,99934.41
2022-10-22T21:19:08.824Z,99948.75
2022-10-22T21:21:36.261Z,99944.38
2022-10-22T21:24:03.955Z,99942.34
2022-10-22T21:26:31.779Z,99954.28
2022-10-22T21:28:59.243Z,99956.31
2022-10-22T21:31:27.845Z,99961.53
2022-10-22T21:33:55.666Z,99966.09
2022-10-22T21:36:25.026Z,99959.84
2022-10-22T21:38:52.855Z,99967.94
2022-10-22T21:41:22.559Z,99970.81
2022-10-22T21:43:50.401Z,99970.37
2022-10-22T21:46:20.340Z,99959.84
2022-10-22T21:48:52.833Z,99964.97
2022-10-22T21:51:21.010Z,99965.41
2022-10-22T21:53:49.027Z,99965.53
2022-10-22T21:56:19.155Z,99962.09
2022-10-22T21:58:46.937Z,99962.56
2022-10-22T22:01:14.966Z,99970.28
2022-10-22T22:03:44.491Z,99972.00
2022-10-22T22:06:12.486Z,99966.50
2022-10-22T22:08:40.423Z,99973.28
2022-10-22T22:11:09.336Z,99975.00
2022-10-22T22:13:37.171Z,99969.66
2022-10-22T22:16:07.967Z,99957.66
2022-10-22T22:18:36.219Z,99967.53
2022-10-22T22:21:09.010Z,99972.53
2022-10-22T22:23:38.531Z,99972.53
2022-10-22T22:26:06.434Z,99973.81
2022-10-22T22:28:34.163Z,99981.94
2022-10-22T22:31:02.727Z,99978.50
2022-10-22T22:33:30.133Z,99971.16
2022-10-22T22:36:00.367Z,99975.31
2022-10-22T22:38:29.073Z,99975.97
2022-10-22T22:40:59.329Z,99974.88
2022-10-22T22:43:26.949Z,99980.78
2022-10-22T22:46:06.636Z,99973.13
2022-10-22T22:48:34.800Z,99977.59
2022-10-22T22:51:06.370Z,99978.41
2022-10-22T22:53:34.864Z,99970.34
2022-10-22T22:56:09.386Z,99969.78
2022-10-22T22:58:37.886Z,99977.00
2022-10-22T23:01:19.262Z,99970.28
2022-10-22T23:03:58.674Z,99977.72
2022-10-22T23:06:28.506Z,99979.81
2022-10-22T23:08:56.989Z,99968.59
2022-10-22T23:11:26.112Z,99975.41
2022-10-22T23:13:59.548Z,99975.00
2022-10-22T23:16:29.124Z,99972.97
2022-10-22T23:18:57.685Z,99977.06
2022-10-22T23:21:27.246Z,99977.47
2022-10-22T23:23:57.446Z,99976.59
2022-10-22T23:26:28.743Z,99974.19
2022-10-22T23:29:01.003Z,99978.56
2022-10-22T23:31:28.770Z,99971.34
2022-10-22T23:33:57.392Z,99966.72
2022-10-22T23:36:24.830Z,99972.00
2022-10-22T23:38:52.576Z,99977.25
2022-10-22T23:41:21.004Z,99968.63
2022-10-22T23:43:50.133Z,99969.00
2022-10-22T23:46:17.914Z,99966.62
2022-10-22T23:48:45.685Z,99964.38
2022-10-22T23:51:15.501Z,99967.66
2022-10-22T23:53:44.310Z,99962.72
2022-10-22T23:56:16.592Z,99962.31
2022-10-22T23:58:44.958Z,99972.09
